Weather observations for the past three days for
San Antonio, Stinson Municipal Airport
Metric (Imperial)
Date Time (cdt) Wind (kph) Vis. (km) Weather Sky Cond. Temperature (ºC) Relative Humidity Wind Chill (°C) Heat Index (°C) Pressure Precipitation (cm)
Air Dwpt 6 hour altimeter (cm) sea level (mb) 1 hr 3 hr 6 hr
Max. Min.
02 15:53 SE 15 16.09 Partly Cloudy FEW090 SCT110 38.9 17.8 29% 41 75.84 1009.5
02 14:53 NE 9 16.09 Overcast BKN070 OVC095 36.1 18.9 36% 38 75.92 1010.5
02 13:53 Vrbl 9 16.09 Fair CLR 37.2 19.4 35% 40 75.97 1011.4
02 12:53 SE 9 16.09 Fair CLR 35 21.1 35.6 24.4 44% 39 76.07 1012.8
02 11:53 Vrbl 7 16.09 Fair CLR 33.3 22.2 52% 38 76.15 1013.6
02 10:53 Vrbl 6 16.09 Fair CLR 31.1 23.3 63% 36 76.15 1013.9
02 09:53 S 7 16.09 Fair CLR 29 24 74% 34 76.17 0.0
02 08:53 Calm 16.09 Fair CLR 27 24 84% 30 76.17 0.0
02 07:53 Calm 0.00 Fair CLR 26 23 84% 28 76.12 0.0
02 06:53 Calm 16.09 Fair CLR 25 23 89% 26 76.1 0.0
01 20:53 Calm 16.09 Fair CLR 33 18 41% 34 75.9 0.0
01 19:53 SE 11 16.09 Fair CLR 34 18 39% 35 75.87 0.0
01 18:53 Vrbl 6 16.09 Fair CLR 37 17 31% 38 75.87 0.0
01 17:53 SE 7 16.09 Fair CLR 38 17 29% 39 75.87 0.0
01 16:53 Vrbl 6 16.09 Fair CLR 38 16 27% 39 75.9 0.0
01 15:53 SE 6 16.09 Fair CLR 37 17 31% 38 75.95 0.0
01 14:53 Vrbl 6 16.09 Fair CLR 37 17 31% 38 76 0.0
01 13:53 Vrbl 6 16.09 Fair CLR 36 17 32% 37 76.07 0.0
01 12:53 SE 13 16.09 Fair CLR 35 17 34% 36 76.15 0.0
01 11:53 S 6 16.09 NULL NULL 34 18 39% 35 76.2 0.0
01 10:53 SE 9 16.09 NULL NULL 32 21 52% 35 76.2 0.0
01 09:53 SE 11 16.09 NULL NULL 30 22 62% 33 76.23 0.0
01 08:53 SE 6 16.09 NULL NULL 28 24 79% 32 76.23 0.0
01 07:53 Calm 16.09 NULL NULL 26 24 89% 28 76.17 0.0
01 06:55 E 6 16.09 A Few Clouds FEW012 26 24 89% 28 76.17 0.0
31 21:53 SE 15 G 31 16.09 Fair CLR 32 21 52% 35 76.05 0.0
31 20:53 SE 31 G 44 16.09 Overcast BKN080 OVC100 33 20 46% 35 75.97 0.0
31 19:53 SE 20 16.09 Fair CLR 35 19 39% 37 75.9 0.0
31 18:53 SE 17 16.09 Fair CLR 37 18 33% 39 75.87 0.0
31 17:53 SE 11 G 30 16.09 Fair CLR 37 17 31% 38 75.87 0.0
31 16:56 Calm 0.00 A Few Clouds FEW080 38 17 29% 39 75.92 0.0
31 15:53 SE 13 G 28 16.09 Fair CLR 38 18 31% 40 75.97 0.0
31 14:53 E 13 G 28 16.09 Fair CLR 37 19 35% 39 76.05 0.0
31 13:58 SE 15 G 33 16.09 A Few Clouds FEW075 36 19 37% 38 76.12 0.0
31 12:53 SE 15 16.09 Fair CLR 36 20 39% 39 76.15 0.0
31 11:53 SE 17 G 30 16.09 Fair CLR 34 21 47% 37 76.2 0.0
31 10:56 S 11 16.09 A Few Clouds FEW029 32 23 59% 37 76.23 0.0
31 09:53 SE 13 16.09 Partly Cloudy SCT019 29 24 74% 34 76.23 0.0
31 08:53 E 9 16.09 Mostly Cloudy BKN010 27 24 84% 30 76.17 0.0
30 20:59 SE 20 G 41 16.09 Fair CLR 32 21 52% 35 75.95 0.0
30 19:55 SE 28 G 37 16.09 Fair CLR 34 21 47% 37 75.9 0.0
30 17:59 SE 20 G 30 16.09 Fair CLR 37 18 33% 39 76.1 0.0
30 16:53 SE 11 G 33 16.09 A Few Clouds FEW070 37 18 33% 39 75.9 0.0
Date Time (cdt) Wind (kph) Vis. (km) Weather Sky Cond. Air Dwpt Max. Min. Relative Humidity Wind Chill (°C) Heat Index (°C) altimeter (cm) sea level (mb) 1 hr 3 hr 6 hr
6 hour
Temperature (ºC) Pressure Precipitation (cm)